CheckWX is a tool to help pilots better visualize weather data.  It is not intended as a substitute for an official pre-flight weather briefing.

11:12:22 UTC

KDUC METAR
Halliburton Field Airport
Duncan, Oklahoma, USA
Current

17 mins ago

KDUC 311055Z AUTO 09004KT 10SM CLR 17/14 A3018 RMK AO2 T01720142
Observed
May-31 @ 10:55 UTC
Wind
  • 090° at 4 KTS
Visibility
Flight Rules
VFR
Cloud Levels
  • Clear skies
Temperature
17°C / 63°F
Dewpoint
14°C / 57°F
Humidity
83%
Altimeter
30.18" Hg
Pressure
1022.02 hPa
Previous

37 mins ago

KDUC 311035Z AUTO 07005KT 10SM CLR 17/14 A3018 RMK AO2 T01710144
Observed
May-31 @ 10:35 UTC
Wind
  • 070° at 5 KTS
Visibility
Flight Rules
VFR
Cloud Levels
  • Clear skies
Temperature
17°C / 63°F
Dewpoint
14°C / 57°F
Humidity
83%
Altimeter
30.18" Hg
Pressure
1022.02 hPa
Previous

57 mins ago

KDUC 311015Z AUTO 09005KT 10SM CLR 17/15 A3017 RMK AO2 T01690146
Observed
May-31 @ 10:15 UTC
Wind
  • 090° at 5 KTS
Visibility
Flight Rules
VFR
Cloud Levels
  • Clear skies
Temperature
17°C / 63°F
Dewpoint
15°C / 59°F
Humidity
88%
Altimeter
30.17" Hg
Pressure
1021.72 hPa